Tiempo atmosférico en la estación meteorológica de Pamplona Aeropuerto, Navarra (459 m.)



Fecha
DESCASC
Temp. máxima en grados centígrados (hora)
DESCASC
Temp. mínima en grados centígrados (hora)
DESCASC
Temp. media en grados centígrados
DESCASC
Racha de viento máxima en m/sg (hora)
DESCASC
Velocidad máxima media en intervalos de 10 minutos(hora)
DESCASC
Precipitaciones diarias en mm
DESCASC
Precipitaciones de 00:00 a 06:00 en mm
DESCASC
Precipitaciones de 06:00 a 12:00 en mm
DESCASC
Precipitaciones de 12:00 a 18:00 en mm
DESCASC
Precipitaciones de 18:00 a 24:00 en mm
DESCASC
28-02-2021 10.3 (17:00) 2.6 (03:20) 6.5 15.28 (20:10) 10.28 (21:00) 1.5 0 0 1.5 0
27-02-2021 13.3 (14:30) 5.1 (03:20) 9.2 14.44 (17:00) 10.83 (17:00) 0 0 0 0 0
26-02-2021 17.2 (15:20) 3.6 (07:00) 10.4 8.89 (17:50) 6.39 (17:20) 0 0 0 0 0
25-02-2021 16 (14:40) 4.7 (00:00) 10.3 7.22 (15:10) 3.61 (01:30) 0 0 0 0 0
24-02-2021 18.6 (16:00) 9.6 (00:00) 14.1 11.67 (04:00) 7.78 (13:50) -- 0 -- 0 0
23-02-2021 15 (15:10) 3.2 (00:00) 9.1 15.28 (15:00) 10.56 (16:20) 0 0 0 0 0
22-02-2021 13.3 (00:10) 0.1 (00:00) 6.7 12.78 (03:10) 8.89 (03:10) 36.4 11.3 23.5 0.9 0.7
21-02-2021 -- (--) -- (--) -- -- (--) -- (--) -- -- 0 0 0
20-02-2021 -- (--) -- (--) -- -- (--) -- (--) -- -- -- -- --
19-02-2021 18.4 (14:00) 5.7 (00:00) 12 14.44 (23:20) 9.72 (23:20) 0 0 0 0 0
18-02-2021 17.9 (16:10) 9.7 (00:00) 13.8 10.28 (10:50) 6.94 (10:40) 0 0 0 0 0
17-02-2021 17.5 (13:50) 3.8 (00:00) 10.6 10.28 (15:10) 7.5 (15:20) 0 0 0 0 0
16-02-2021 15.6 (14:20) 5.3 (00:00) 10.5 12.5 (11:40) 8.33 (12:20) 0 0 0 0 0
15-02-2021 13.5 (17:00) 5.2 (00:00) 9.3 9.72 (14:10) 6.39 (14:30) 0 0 0 0 0
14-02-2021 16 (14:20) -0.7 (-00:0) 7.7 10.83 (15:50) 7.5 (15:50) 0 0 0 0 0
13-02-2021 13.3 (14:10) 3 (00:00) 8.2 8.89 (00:10) 5.56 (01:30) 0 0 0 0 0
12-02-2021 12 (15:40) 6.2 (00:00) 9.1 12.78 (23:59) 8.33 (23:50) 8.3 0 1.8 4.5 2
11-02-2021 14.8 (16:40) -0.5 (-00:0) 7.2 4.72 (23:40) 3.06 (22:30) 0 0 0 0 0
10-02-2021 10 (15:50) 2.5 (00:00) 6.3 7.78 (16:40) 5.56 (16:40) 10.4 0.7 9.7 0 0
09-02-2021 10 (11:50) 4.5 (00:00) 7.3 12.78 (13:10) 8.89 (16:20) 4.3 0 0 4.3 0
08-02-2021 12 (16:50) 4.9 (00:00) 8.5 11.39 (18:00) 6.67 (18:00) 1.2 0.8 0 0.3 0.1
07-02-2021 10 (15:40) 2.8 (00:00) 6.4 8.33 (01:20) 5.28 (01:20) 2.2 0 0 0 2.2
06-02-2021 9.3 (12:40) 4.7 (00:00) 7 10.83 (18:10) 7.5 (18:30) 12.8 0.1 8.1 4.5 0.1
05-02-2021 17.3 (15:10) 6.6 (00:00) 11.9 6.67 (17:20) 4.44 (17:20) 0 0 0 0 0
04-02-2021 15.7 (16:20) 10.2 (00:00) 12.9 8.89 (21:40) 6.11 (21:50) 0 0 0 0 0
03-02-2021 14.4 (16:00) 9.2 (00:00) 11.8 11.67 (06:00) 7.78 (06:00) 1.6 0 0.2 0.8 0.6
02-02-2021 18.2 (15:30) 3.7 (05:50) 11 10.28 (09:50) 6.67 (13:00) 0 0 0 0 0
01-02-2021 11.6 (11:30) 7.4 (00:00) 9.5 20 (07:40) 11.11 (07:40) 3.6 0 0 2.9 0.7
31-01-2021 10.9 (16:30) 5.8 (00:00) 8.3 16.11 (06:10) 9.17 (06:10) 5 1.4 0.2 0.3 3.1
30-01-2021 15.6 (14:50) 5.1 (00:00) 10.4 19.72 (15:00) 15 (15:00) 8.9 1.3 0.5 6.7 0.4

Gráficas

Temp. máximas Temp. mínimas Temp. medias Precipitaciones Rachas de viento máximas Velocidades máximas media en intervalos de 10 minutos

Datos horarios

Fecha y hora oficial Temperatura (ºC) Velocidad del viento (km/h) Dirección del viento Racha (km/h) Dirección de racha Precipitación (mm) Presión (hPa) Tendencia (hPa) Humedad (%)
2021-02-28 23:00:00 9.7 32 Este 50 Este 0 968.7 -- 69
2021-02-28 22:00:00 10 31 Este 46 Este 0 968.5 -- 68
2021-02-28 21:00:00 9.9 37 Este 55 Este 0 967.9 -- 74
2021-02-28 20:00:00 9.4 33 Este 45 Sudeste 0 967.7 -- 77
2021-02-28 19:00:00 9.5 22 Este 46 Este 0 967.2 -- 74
2021-02-28 18:00:00 9.6 35 Sudeste 50 Este 0 967.3 -- 74
2021-02-28 17:00:00 10.3 22 Sudeste 35 Sudeste 0 967.6 -- 74
2021-02-28 16:00:00 8.8 5 Sudeste 11 Noroeste 0 967.7 -- 85
2021-02-28 15:00:00 7.7 8 Noroeste 13 Oeste 0 968.2 -- 92
2021-02-28 14:00:00 7 6 Oeste 8 Oeste 1.4 968.8 -- 92
2021-02-28 13:00:00 7.8 0 Calma 8 Nordeste 0.1 969.7 -- 78
2021-02-28 12:00:00 7.5 4 Nordeste 9 Nordeste 0 969.9 -- 76
2021-02-28 11:00:00 6.8 0 Calma 5 Sudeste 0 969.9 -- 79
2021-02-28 10:00:00 6.6 0 Calma 5 Este 0 970.1 -- 80
2021-02-28 09:00:00 5.7 0 Calma 5 Sudeste 0 970.1 -- 86
2021-02-28 08:00:00 5 0 Calma 4 Sudoeste 0 970.1 -- 90
2021-02-28 07:00:00 4.8 0 Calma 8 Sudeste 0 970 -- 90
2021-02-28 06:00:00 4.5 -- -- -- -- 0 969.8 -- 92
2021-02-28 05:00:00 4.2 3 Oeste 5 Oeste 0 970 -- 94
2021-02-28 04:00:00 3.6 3 Este 9 Este 0 970.6 -- 92
2021-02-28 03:00:00 3.1 0 Calma 9 Sudoeste 0 970.8 -- 90
2021-02-28 02:00:00 3.5 7 Sudoeste 9 Sudoeste 0 971.3 -- 88
2021-02-28 01:00:00 5.1 8 Norte 22 Noroeste 0 971.1 -- 82
2021-02-28 00:00:00 5.8 17 Noroeste 41 Norte 0 971.2 -- 79
2021-02-27 23:00:00 5.8 26 Norte 35 Norte 0 971.4 -- 79
2021-02-27 22:00:00 6 22 Noroeste 35 Noroeste 0 971.7 -- 78
2021-02-27 21:00:00 5.9 18 Norte 33 Norte 0 971.9 -- 79
2021-02-27 20:00:00 7.1 24 Norte 41 Norte 0 972 -- 75
2021-02-27 19:00:00 7.9 27 Norte 41 Norte 0 971.5 -- 73
2021-02-27 18:00:00 9.7 28 Norte 50 Norte 0 971.2 -- 66
2021-02-27 17:00:00 11.7 39 Noroeste 52 Noroeste 0 971.1 -- 57
2021-02-27 16:00:00 12.6 32 Norte 45 Norte 0 971.4 -- 52
2021-02-27 15:00:00 12.4 34 Norte 46 Norte 0 972 -- 51
2021-02-27 14:00:00 12.7 29 Norte 46 Noroeste 0 972.8 -- 51
2021-02-27 13:00:00 12.6 32 Norte 45 Norte 0 973.8 -- 52
2021-02-27 12:00:00 11.9 27 Norte 42 Norte 0 974.5 -- 57
2021-02-27 11:00:00 10.7 27 Norte 39 Norte 0 974.9 -- 63
2021-02-27 10:00:00 10.9 20 Norte 32 Norte 0 975 -- 67
2021-02-27 09:00:00 8.8 20 Norte 33 Norte 0 974.9 -- 77
2021-02-27 08:00:00 8.2 22 Norte 35 Norte 0 974.8 -- 82
2021-02-27 07:00:00 8 19 Norte 30 Norte 0 974.9 -- 82
2021-02-27 06:00:00 7.6 18 Norte 28 Norte 0 975 -- 85
2021-02-27 05:00:00 7.5 18 Norte 24 Norte 0 975.2 -- 86
2021-02-27 04:00:00 6.1 8 Norte 13 Norte 0 975.3 -- 92
2021-02-27 03:00:00 5.8 7 Norte 13 Noroeste 0 975.8 -- 92
2021-02-27 02:00:00 6.6 9 Norte 18 Norte 0 976.2 -- 89
2021-02-27 01:00:00 7.4 12 Noroeste 18 Noroeste 0 976.3 -- 88
2021-02-27 00:00:00 7.9 14 Noroeste 21 Noroeste 0 976.6 -- 87
2021-02-26 23:00:00 8.5 15 Noroeste 22 Norte 0 976.8 -- 85
2021-02-26 22:00:00 8.6 15 Noroeste 26 Norte 0 976.4 -- 86
2021-02-26 21:00:00 9 14 Noroeste 26 Norte 0 976.3 -- 84
2021-02-26 20:00:00 9.5 21 Norte 32 Noroeste 0 976.4 -- 83
2021-02-26 19:00:00 10.8 20 Norte 30 Norte 0 975.9 -- 77
2021-02-26 18:00:00 12.8 20 Norte 32 Norte 0 975.5 -- 68
2021-02-26 17:00:00 15.1 19 Norte 26 Noroeste 0 975.4 -- 59
2021-02-26 16:00:00 16.1 13 Norte 22 Norte 0 975.3 -- 56
2021-02-26 15:00:00 16.7 17 Noroeste 26 Noroeste 0 976 -- 56
2021-02-26 14:00:00 15.8 11 Norte 21 Norte 0 976.6 -- 57
2021-02-26 13:00:00 15 6 Noroeste 15 Norte 0 977.4 -- 61
2021-02-26 12:00:00 12.9 4 Nordeste 9 Norte 0 977.8 -- 69
2021-02-26 11:00:00 10.7 4 Sur 8 Sur 0 977.9 -- 82
2021-02-26 10:00:00 7 0 Calma 5 Sudoeste 0 978 -- 94
2021-02-26 09:00:00 5.6 0 Calma 4 Nordeste 0 977.7 -- 97
2021-02-26 08:00:00 4 0 Calma 4 Este 0 977.3 -- 98
2021-02-26 07:00:00 3.7 4 Sudeste 8 Sudeste 0 977.2 -- 97
2021-02-26 06:00:00 4.8 0 Calma 4 Sudeste 0 977.2 -- 97
2021-02-26 05:00:00 5 3 Sudeste 8 Sudeste 0 977.2 -- 97
2021-02-26 04:00:00 5 2 Sudeste 8 Sudeste 0 977.4 -- 95
2021-02-26 03:00:00 5.5 4 Este -- -- 0 977.6 -- 95
2021-02-26 02:00:00 5.6 6 Sudeste 9 Sudeste 0 977.7 -- 95
2021-02-26 01:00:00 5.8 5 Sudeste 8 Sudeste 0 977.8 -- 93
2021-02-26 00:00:00 6.4 5 Sur 8 Sudeste 0 977.7 -- 92
2021-02-25 23:00:00 6.7 5 Sur 8 Sur 0 977.5 -- 92
2021-02-25 22:00:00 7.6 7 Sur 9 Sur 0 977.2 -- 89
2021-02-25 21:00:00 8.6 5 Sur -- -- 0 976.9 -- 86
2021-02-25 20:00:00 9.8 5 Oeste 9 Noroeste 0 976.3 -- 82
2021-02-25 19:00:00 11 7 Norte 13 Norte 0 975.7 -- 77
2021-02-25 18:00:00 12.2 8 Norte 15 Oeste 0 975.2 -- 74
2021-02-25 17:00:00 14 9 Oeste 24 Noroeste 0 974.7 -- 66
2021-02-25 16:00:00 15.5 8 Sudoeste 26 Sudoeste 0 974.8 -- 57
2021-02-25 15:00:00 15.7 9 Sudoeste 15 Sudoeste 0 975 -- 54
2021-02-25 14:00:00 15.4 7 Sudoeste 21 Sudoeste 0 975.7 -- 55
2021-02-25 13:00:00 14.5 10 Sur 21 Sudoeste 0 976.6 -- 58
2021-02-25 12:00:00 11.9 6 Sudeste 13 Este 0 977 -- 65
2021-02-25 11:00:00 10.7 3 Norte 11 Noroeste 0 977.1 -- 71
2021-02-25 10:00:00 8.9 0 Calma 9 Nordeste 0 976.8 -- 80
2021-02-25 09:00:00 6.5 4 Sur 11 Sudoeste 0 976.2 -- 90
2021-02-25 08:00:00 5.7 12 Oeste 17 Oeste 0 975.3 -- 92
2021-02-25 07:00:00 5.3 6 Nordeste 11 Nordeste 0 974.7 -- 93
2021-02-25 06:00:00 6.1 3 Oeste 13 Sur 0 975.1 -- 93
2021-02-25 05:00:00 6.5 0 Calma 9 Noroeste 0 974.9 -- 92
2021-02-25 04:00:00 7.2 3 Norte 13 Oeste 0 974.9 -- 89
2021-02-25 03:00:00 9.9 5 Sudeste 21 Este 0 974.7 -- 68
2021-02-25 02:00:00 8.8 8 Sudeste 18 Sur 0 975 -- 77
2021-02-25 01:00:00 9.3 3 Oeste 13 Oeste 0 975.5 -- 78
2021-02-25 00:00:00 10.9 8 Sudoeste 28 Sudeste 0 975.2 -- 65
2021-02-24 23:00:00 11.7 19 Sudeste 28 Sudeste 0 975.2 -- 63
2021-02-24 22:00:00 12 9 Sudeste 18 Sur 0 975.5 -- 60
2021-02-24 21:00:00 12.9 7 Sudeste 21 Sudeste 0 975.3 -- 61
2021-02-24 20:00:00 12.8 13 Sudeste 24 Sudeste 0 975.1 -- 65
2021-02-24 19:00:00 14.5 17 Sudeste 37 Sudeste 0 974.5 -- 56
2021-02-24 18:00:00 16 23 Sudeste 42 Sudeste 0 974.1 -- 53
2021-02-24 17:00:00 17.8 21 Sur 41 Sur 0 974.6 -- 47
2021-02-24 16:00:00 18.3 19 Sur 39 Sudeste 0 974.9 -- 45
2021-02-24 15:00:00 17.6 24 Sudeste 37 Sudeste 0 975.6 -- 50
2021-02-24 14:00:00 17.6 24 Sur 39 Sur 0 976.5 -- 54
2021-02-24 13:00:00 16.3 25 Sur 39 Sudoeste 0 977.4 -- 61
2021-02-24 12:00:00 15.2 27 Sur 37 Sur 0 978.1 -- 64
2021-02-24 11:00:00 14.2 23 Sur 35 Sudoeste -- 978.4 -- 67
2021-02-24 10:00:00 13.1 15 Sur 26 Sur 0 978.7 -- 71
2021-02-24 09:00:00 10.7 17 Sur 26 Sur 0 978.6 -- 80
2021-02-24 08:00:00 9.6 15 Sur 21 Sur 0 978.5 -- 83
2021-02-24 07:00:00 11.4 13 Sur 41 Sudeste 0 978.4 -0.1 75
2021-02-24 06:00:00 11.8 24 Sudeste 37 Sudeste 0 978.2 -0.9 75
2021-02-24 05:00:00 11.8 19 Sudeste 33 Sudeste 0 978.3 -- 75
2021-02-24 04:00:00 12 26 Sudeste 42 Sudeste 0 978.5 -- 71
2021-02-24 03:00:00 11.4 23 Sudeste 37 Sudeste 0 979.1 -- 75
2021-02-24 02:00:00 11.2 21 Sudeste 32 Sudeste 0 979.3 -0.6 77
2021-02-24 01:00:00 10.8 19 Sudeste 28 Sur 0 979.6 -- 75
2021-02-24 00:00:00 9.8 16 Sudeste 30 Sudeste 0 979.9 -- 76
2021-02-23 23:00:00 11 26 Sudeste 37 Sudeste 0 979.9 -- 69
2021-02-23 22:00:00 9.8 15 Sur 21 Sur 0 979.7 -- 75
2021-02-23 21:00:00 10.8 9 Sur 24 Sudeste 0 979.3 1.1 69
2021-02-23 20:00:00 11.1 18 Sudeste 28 Sudeste 0 978.8 -- 72
2021-02-23 19:00:00 11.5 18 Sudeste 35 Sudeste 0 978.6 -- 68
2021-02-23 18:00:00 13.4 22 Sudeste 39 Sur 0 978.2 -- 57
2021-02-23 17:00:00 14.2 29 Sur 54 Sudeste 0 977.9 -- 55
2021-02-23 16:00:00 14.7 27 Sudeste 54 Sur 0 977.8 -- 56
2021-02-23 15:00:00 14.6 37 Sur 55 Sudeste 0 977.7 -- 55
2021-02-23 14:00:00 14.2 32 Sudeste 54 Sur 0 978.1 -- 58
2021-02-23 13:00:00 13.5 31 Sudeste 48 Sur 0 978.6 -- 59
2021-02-23 12:00:00 11.9 29 Sudeste 48 Sudeste 0 978.9 -- 67
2021-02-23 11:00:00 12.1 26 Sur 45 Sur 0 978.6 -- 69
2021-02-23 10:00:00 9.7 35 Sur 48 Sur 0 977.7 -- 75
2021-02-23 09:00:00 7.4 20 Sur 30 Sur 0 977.3 -- 84
2021-02-23 08:00:00 7.5 12 Sur 24 Sudoeste 0 976.8 -- 82
2021-02-23 07:00:00 7.2 15 Sur 24 Sur 0 976.3 -- 87
2021-02-23 06:00:00 6.8 16 Sur 22 Sur 0 975.9 -- 92
2021-02-23 05:00:00 6.3 4 Sur 9 Sur 0 975.2 -- 96
2021-02-23 04:00:00 5.8 0 Calma 11 Nordeste 0 974.8 -- 97
2021-02-23 03:00:00 5 0 Calma 9 Noroeste 0 974.5 -- 99
2021-02-23 02:00:00 3.5 4 Este 9 Sur 0 973.7 -- 97
2021-02-23 01:00:00 4.7 5 Oeste 11 Sudeste 0 973.2 -- 97
2021-02-23 00:00:00 5.6 0 Calma 9 Sur 0 972.8 -- 96
2021-02-22 23:00:00 6 4 Sur 9 Oeste 0 972.4 -- 95
2021-02-22 22:00:00 6.7 5 Oeste 9 Oeste 0.1 971.8 -- 95
2021-02-22 21:00:00 6.7 4 Oeste 8 Oeste 0 971.6 -- 95
2021-02-22 20:00:00 6.8 7 Oeste 11 Noroeste 0 970.8 -- 95
2021-02-22 19:00:00 7.2 9 Noroeste 15 Norte 0.6 969.7 -- 94
2021-02-22 18:00:00 7.9 9 Norte 15 Nordeste 0 968.4 -- 85
2021-02-22 17:00:00 8.1 12 Nordeste 21 Nordeste 0 967.5 -- 86
2021-02-22 16:00:00 7.7 4 Oeste 8 Oeste 0.2 966.7 -- 92
2021-02-22 15:00:00 6.9 5 Sudoeste 13 Sudoeste 0.4 966.1 -- 91
2021-02-22 14:00:00 5.7 8 Sur 11 Sur 0.1 965.6 -- 91
2021-02-22 13:00:00 4.5 4 Sudeste 9 Sudeste 0.2 965.8 -- 91
2021-02-22 12:00:00 3.4 5 Sur 11 Sudeste 0.1 965.7 -- 96
2021-02-22 11:00:00 1.5 10 Sudeste 13 Sudeste 0.7 964.9 -- 97
2021-02-22 10:00:00 0.3 5 Sur 13 Sudeste 4.4 964.4 -- 96
2021-02-22 09:00:00 1.4 8 Sudeste 22 Norte 8.2 963.2 -- 91
2021-02-22 08:00:00 3.4 10 Noroeste 21 Norte 4.1 961.3 -- 93
2021-02-22 07:00:00 3.5 7 Oeste 21 Noroeste 6 960.4 3.2 96
2021-02-22 06:00:00 3.8 19 Noroeste 30 Oeste 2.4 959.1 -- 93
2021-02-22 05:00:00 4.8 14 Noroeste 33 Noroeste 4.3 957.6 -- 95
2021-02-22 04:00:00 5.9 20 Noroeste 46 Norte 4.5 957.2 -- 97
2021-02-22 03:00:00 8 21 Norte 39 Norte 0.1 956.6 -- 88
2021-02-22 02:00:00 11.4 19 Este 32 Sudeste 0 955.7 -- 73
2021-02-22 01:00:00 11.8 12 Nordeste 37 Este 0 955.4 -- 68
2021-02-22 00:00:00 12.9 16 Este 28 Este 0 955.4 -- 59
2021-02-21 23:00:00 13 8 Sudeste 35 Este 0 955.5 -- 56
2021-02-21 22:00:00 13.3 10 Sudeste -- -- -- 955.2 0.9 55
2021-02-21 21:00:00 13.2 16 Sudeste 37 Sudeste 0 955.2 -- 56
2021-02-21 20:00:00 13.5 28 Sudeste 48 Sudeste 0 954.5 -- 55
2021-02-21 19:00:00 13 18 Sudeste 37 Este 0 954.3 -- 59
2021-02-21 18:00:00 12.9 19 Sur 37 Sudeste 0 954.3 -- 61
2021-02-21 17:00:00 13 20 Sur 42 Sur 0 954.5 -- 59
2021-02-21 16:00:00 13.5 23 Sur 52 Sur 0 954.4 -- 56
2021-02-21 15:00:00 -- -- -- -- -- -- -- -- --
2021-02-21 14:00:00 -- -- -- -- -- -- -- -- --
2021-02-21 13:00:00 -- -- -- -- -- -- -- -- --
2021-02-21 12:00:00 -- -- -- -- -- -- -- -- --
2021-02-21 11:00:00 -- -- -- -- -- -- -- -- --
2021-02-21 10:00:00 -- -- -- -- -- -- -- -- --
2021-02-21 09:00:00 -- -- -- -- -- -- -- -- --
2021-02-21 08:00:00 -- -- -- -- -- -- -- -- --
2021-02-21 07:00:00 -- -- -- -- -- -- -- -- --
2021-02-21 06:00:00 -- -- -- -- -- -- -- -- --
2021-02-21 05:00:00 -- -- -- -- -- -- -- -- --
2021-02-21 04:00:00 -- -- -- -- -- -- -- -- --
2021-02-21 03:00:00 -- -- -- -- -- -- -- -- --
2021-02-21 02:00:00 -- -- -- -- -- -- -- -- --
2021-02-21 01:00:00 -- -- -- -- -- -- -- -- --
2021-02-21 00:00:00 -- -- -- -- -- -- -- -- --
2021-02-20 23:00:00 -- -- -- -- -- -- -- -- --
2021-02-20 22:00:00 -- -- -- -- -- -- -- -- --
2021-02-20 21:00:00 -- -- -- -- -- -- -- -- --
2021-02-20 20:00:00 -- -- -- -- -- -- -- -- --
2021-02-20 19:00:00 -- -- -- -- -- -- -- -- --
2021-02-20 18:00:00 -- -- -- -- -- -- -- -- --
2021-02-20 17:00:00 -- -- -- -- -- -- -- -- --
2021-02-20 16:00:00 -- -- -- -- -- -- -- -- --
2021-02-20 15:00:00 -- -- -- -- -- -- -- -- --
2021-02-20 14:00:00 -- -- -- -- -- -- -- -- --
2021-02-20 13:00:00 -- -- -- -- -- -- -- -- --
2021-02-20 12:00:00 -- -- -- -- -- -- -- -- --
2021-02-20 11:00:00 -- -- -- -- -- -- -- -- --
2021-02-20 10:00:00 -- -- -- -- -- -- -- -- --
2021-02-20 09:00:00 -- -- -- -- -- -- -- -- --
2021-02-20 08:00:00 -- -- -- -- -- -- -- -- --
2021-02-20 07:00:00 -- -- -- -- -- -- -- -- --
2021-02-20 06:00:00 -- -- -- -- -- -- -- -- --
2021-02-20 05:00:00 -- -- -- -- -- -- -- -- --
2021-02-20 04:00:00 -- -- -- -- -- -- -- -- --
2021-02-20 03:00:00 13 31 Sudeste 41 Sudeste 0 960.7 -- 44
2021-02-20 02:00:00 13.4 23 Sudeste 46 Sudeste 0 961 -- 42
2021-02-20 01:00:00 12.8 34 Sudeste 50 Sudeste 0 960.7 -- 45
2021-02-20 00:00:00 13.3 31 Sudeste 52 Sudeste 0 961.4 -- 45
2021-02-19 23:00:00 13.2 30 Sudeste 45 Sudeste 0 961.9 -0.2 46
2021-02-19 22:00:00 13.2 30 Sudeste 48 Sudeste 0 962.1 -- 49
2021-02-19 21:00:00 13.6 32 Sudeste 48 Sudeste 0 962.2 -- 50
2021-02-19 20:00:00 14 27 Sudeste 41 Sudeste 0 962.1 -- 50
2021-02-19 19:00:00 14.9 26 Sudeste 37 Sudeste 0 961.9 -- 45
2021-02-19 18:00:00 15.9 28 Sudeste 41 Sudeste 0 961.6 -- 43
2021-02-19 17:00:00 17.1 22 Sudeste 39 Sur 0 961.6 -1.5 39
2021-02-19 16:00:00 17.8 23 Sudeste 42 Sudeste 0 961.7 -- 39
2021-02-19 15:00:00 18.3 23 Sur 46 Sur 0 962.3 -- 37
2021-02-19 14:00:00 18.2 28 Sur 46 Sur 0 963.1 -- 35
2021-02-19 13:00:00 17.2 28 Sur 42 Sur 0 964 -- 39
2021-02-19 12:00:00 16.6 21 Sur 39 Sur 0 964.7 -- 39
2021-02-19 11:00:00 14.8 25 Sur 33 Sur 0 964.8 -- 42
2021-02-19 10:00:00 11.5 9 Noroeste 13 Norte 0 964.9 -- 59
2021-02-19 09:00:00 8.6 7 Sudeste 17 Sudeste 0 964.6 -- 66
2021-02-19 08:00:00 7.5 7 Norte 15 Oeste 0 964.1 -- 68
2021-02-19 07:00:00 6.8 13 Noroeste 24 Oeste 0 964 -- 74
2021-02-19 06:00:00 6.4 3 Sudeste 11 Nordeste 0 963.9 -- 74
2021-02-19 05:00:00 7.8 7 Noroeste 18 Noroeste 0 963.8 -- 67
2021-02-19 04:00:00 8.3 9 Sur 18 Sur 0 963.9 -- 65
2021-02-19 03:00:00 9.3 13 Sur 24 Sur 0 964 -- 61
2021-02-19 02:00:00 9.2 14 Sur 21 Sur 0 963.9 -- 58
2021-02-19 01:00:00 9.5 4 Este 13 Este 0 963.9 -- 61
2021-02-19 00:00:00 10.6 9 Sur 21 Sur 0 964.1 -- 55
2021-02-18 23:00:00 10.8 4 Sudoeste 15 Sudeste 0 964.1 -- 69
2021-02-18 22:00:00 10.7 9 Sudeste 13 Sudeste 0 963.8 -- 70
2021-02-18 21:00:00 11.5 4 Nordeste 13 Sudeste 0 963.4 -- 65
2021-02-18 20:00:00 12.2 10 Sur 15 Sudoeste 0 963.1 -- 60
2021-02-18 19:00:00 13.4 9 Sur 13 Sur 0 962.8 -- 58
2021-02-18 18:00:00 16.3 6 Sudoeste 13 Sur 0 962.3 -- 49
2021-02-18 17:00:00 17.2 9 Sur 22 Sur 0 962.2 -- 43
2021-02-18 16:00:00 17.6 16 Sudoeste 26 Sudoeste 0 962 -- 43
2021-02-18 15:00:00 15.4 9 Norte 17 Norte 0 962.2 -- 53
2021-02-18 14:00:00 14.5 5 Noroeste 28 Sudoeste 0 962.8 -- 58
2021-02-18 13:00:00 15.8 16 Sur 35 Sudoeste 0 963 -- 45
2021-02-18 12:00:00 13.8 8 Sudeste 37 Sur 0 962.8 -- 50
2021-02-18 11:00:00 13.1 22 Sur 37 Sur 0 962.5 -- 50
2021-02-18 10:00:00 11.4 5 Nordeste -- -- -- 962.1 -- 59
2021-02-18 09:00:00 11.5 14 Sur 28 Sur 0 962 -- 56
2021-02-18 08:00:00 10.5 6 Sudeste 24 Sur 0 961.8 -- 58
2021-02-18 07:00:00 11.7 17 Sur 28 Sur 0 961.5 -- 55
2021-02-18 06:00:00 12 19 Sur 32 Sur 0 961.7 -- 55
2021-02-18 05:00:00 11 17 Sur 32 Sur 0 962.1 -- 61
2021-02-18 04:00:00 11.3 15 Sur 26 Sur 0 962.6 -- 64
2021-02-18 03:00:00 11.4 12 Este 18 Este 0 963.1 -- 65
2021-02-18 02:00:00 10.8 6 Nordeste 28 Sur 0 963.4 -- 69
2021-02-18 01:00:00 11.1 10 Sudeste 22 Sur 0 963.7 -- 68
2021-02-18 00:00:00 11.5 10 Sudeste 18 Sudeste 0 963.9 -- 68
2021-02-17 23:00:00 12.5 15 Sudeste 24 Sudeste 0 964.7 -- 66
2021-02-17 22:00:00 11 12 Sur 18 Sur 0 964.8 -- 72
2021-02-17 21:00:00 11.6 5 Oeste 21 Sudeste 0 964.7 -- 75
2021-02-17 20:00:00 12.7 12 Sudeste 18 Sur 0 964.7 -- 67
2021-02-17 19:00:00 13.5 4 Sudoeste 18 Sur 0 965.1 -- 66
2021-02-17 18:00:00 14.5 8 Sudeste 21 Sur 0 965.6 -- 64
2021-02-17 17:00:00 15.4 15 Sur 30 Sur 0 965.9 -- 58
2021-02-17 16:00:00 15.4 20 Sur 37 Sur 0 966 -- 58
2021-02-17 15:00:00 16.6 21 Sur 33 Sur 0 966.6 -- 57
2021-02-17 14:00:00 17 23 Sur 35 Sur 0 967.5 -- 55
2021-02-17 13:00:00 16.4 13 Sudoeste -- -- -- 968.2 -- 60
2021-02-17 12:00:00 13.2 4 Noroeste 11 Norte 0 969 -- 70
2021-02-17 11:00:00 12.2 8 Noroeste 13 Norte 0 969.4 -- 74
2021-02-17 10:00:00 9.5 3 Nordeste 8 Nordeste 0 969.5 -- 87
2021-02-17 09:00:00 6.7 3 Oeste 11 Sudeste 0 969.7 -- 98
2021-02-17 08:00:00 4.4 2 Este 8 Sudoeste 0 969.4 -- 98
2021-02-17 07:00:00 4.5 0 Calma 9 Oeste 0 969.5 -- 98
2021-02-17 06:00:00 5.1 4 Norte 9 Sur 0 969.7 -- 98
2021-02-17 05:00:00 4.3 4 Este 8 Este 0 969.8 -- 96
2021-02-17 04:00:00 6.2 3 Sur 8 Sur 0 970 -- 97
2021-02-17 03:00:00 7.1 3 Nordeste 8 Sudeste 0 970.2 -- 94
2021-02-17 02:00:00 7.8 0 Calma 9 Norte 0 970.5 -- 94
2021-02-17 01:00:00 8.6 4 Sudeste 9 Nordeste 0 970.6 -- 90
2021-02-17 00:00:00 8.9 2 Este 8 Este 0 970.8 -- 91
2021-02-16 23:00:00 9.5 5 Este 11 Sudeste 0 970.8 -- 89
2021-02-16 22:00:00 9.5 3 Sudoeste 9 Nordeste 0 970.5 -- 88
2021-02-16 21:00:00 9.9 6 Norte 9 Norte 0 970.3 -- 86
2021-02-16 20:00:00 10.8 5 Sur 8 Sudoeste 0 970.3 -- 81
2021-02-16 19:00:00 11.5 5 Sudeste 9 Este 0 970.1 -- 79
2021-02-16 18:00:00 12.6 3 Noroeste 9 Norte 0 970 -- 73
2021-02-16 17:00:00 13.6 7 Oeste 28 Oeste 0 970 -- 67
2021-02-16 16:00:00 13.6 19 Oeste 26 Oeste 0 970.5 -- 67
2021-02-16 15:00:00 14.8 12 Sudoeste 39 Sudoeste 0 970.6 -- 58
2021-02-16 14:00:00 14.9 18 Sudoeste 30 Sur 0 971 -- 57
2021-02-16 13:00:00 13.4 23 Sudoeste 41 Sudoeste 0 971.3 -- 59
2021-02-16 12:00:00 13 19 Sudoeste 45 Sudoeste 0 971.5 -- 59
2021-02-16 11:00:00 10.8 8 Sudeste 21 Este 0 971.8 -- 70
2021-02-16 10:00:00 8.7 4 Nordeste 13 Nordeste 0 972.2 -- 78
2021-02-16 09:00:00 6.2 5 Sudeste 9 Sudeste 0 972.4 -- 86
2021-02-16 08:00:00 5.5 3 Sudeste 9 Sudeste 0 971.7 -- 88
2021-02-16 07:00:00 6 7 Noroeste 9 Norte 0 972.1 -- 90
2021-02-16 06:00:00 6 3 Noroeste 11 Sudoeste 0 972.6 -- 87
2021-02-16 05:00:00 6.8 0 Calma 13 Este 0 973 -- 84
2021-02-16 04:00:00 7.9 9 Sudeste 33 Sudeste 0 973.6 -- 78
2021-02-16 03:00:00 8.3 21 Este 35 Sudeste 0 974 -- 77
2021-02-16 02:00:00 8.4 18 Sudeste 32 Este 0 974.6 -- 78
2021-02-16 01:00:00 8.2 14 Sudeste 24 Sudeste 0 975.5 -- 80
2021-02-16 00:00:00 7.6 18 Sudeste 24 Sudeste 0 975.8 -- 83
2021-02-15 23:00:00 7.3 13 Sudeste 22 Sur 0 976.3 -- 82
2021-02-15 22:00:00 6.2 11 Sur 21 Sur 0 976.3 -- 87
2021-02-15 21:00:00 6.5 2 Norte 9 Norte 0 976.3 -- 89
2021-02-15 20:00:00 8.1 6 Sur 15 Sur 0 976 -- 83
2021-02-15 19:00:00 9.1 12 Sur 30 Sudoeste 0 975.9 -- 78
2021-02-15 18:00:00 11.7 16 Sudoeste 30 Sur 0 975.7 -- 68
2021-02-15 17:00:00 13.3 14 Sur 32 Sudoeste 0 976 -- 60
2021-02-15 16:00:00 11.3 18 Sur 33 Sudoeste 0 976.5 -- 68
2021-02-15 15:00:00 12.4 23 Sudoeste 35 Sudoeste 0 976.8 -- 66
2021-02-15 14:00:00 12.5 18 Sudoeste 32 Sudoeste 0 977.3 -- 64
2021-02-15 13:00:00 11.3 14 Sur 24 Sur 0 978.4 -- 70
2021-02-15 12:00:00 10.4 12 Sur 18 Sur 0 979.1 -- 70
2021-02-15 11:00:00 9.4 6 Sur 17 Sur 0 979.2 -- 72
2021-02-15 10:00:00 8.5 11 Sur 15 Sur 0 979.2 -- 77
2021-02-15 09:00:00 5.6 2 Este 9 Nordeste 0 978.9 -- 89
2021-02-15 08:00:00 5.9 4 Noroeste 9 Oeste 0 978.2 -- 87
2021-02-15 07:00:00 6 3 Norte 11 Oeste 0 978.1 -- 87
2021-02-15 06:00:00 5.9 5 Sudoeste 11 Noroeste 0 978.1 -- 88
2021-02-15 05:00:00 5.6 3 Norte 9 Nordeste 0 978.3 -- 90
2021-02-15 04:00:00 5.7 8 Oeste 11 Oeste 0 978.2 -- 88
2021-02-15 03:00:00 6.1 10 Sur 18 Sur 0 978.5 -- 84
2021-02-15 02:00:00 6.7 8 Sur 13 Sur 0 978.6 -- 81
2021-02-15 01:00:00 7.2 6 Sur 11 Norte 0 978.3 -- 81
2021-02-15 00:00:00 7.1 7 Nordeste 18 Sur 0 978 -- 83
2021-02-14 23:00:00 8.1 2 Sudeste 13 Sur 0 977.8 -- 78
2021-02-14 22:00:00 8.6 8 Sudeste 15 Sudeste 0 977.5 -- 75
2021-02-14 21:00:00 8.3 9 Sur 13 Sur 0 977.1 -- 78
2021-02-14 20:00:00 8.5 4 Noroeste 18 Norte 0 976.9 -- 75
2021-02-14 19:00:00 9.8 6 Sur 17 Sudeste 0 976.4 1.2 68
2021-02-14 18:00:00 10.8 12 Sudeste 32 Sudeste 0 975.8 0.7 67
2021-02-14 17:00:00 12.3 22 Este 37 Sudeste 0 975.2 -- 64
2021-02-14 16:00:00 14.1 18 Sudeste 39 Sudeste 0 975.2 -- 56
2021-02-14 15:00:00 14.8 19 Sur 30 Sur 0 975.1 -- 53
2021-02-14 14:00:00 15 14 Sur 24 Sur 0 975.7 -- 54
2021-02-14 13:00:00 12.7 7 Noroeste 11 Oeste 0 976.2 -- 64
2021-02-14 12:00:00 10.4 6 Noroeste 9 Noroeste 0 976.7 -- 71
2021-02-14 11:00:00 7.7 3 Nordeste 8 Nordeste 0 976.8 -- 79
2021-02-14 10:00:00 3.8 2 Este 5 Sudeste 0 976.6 -- 96
2021-02-14 09:00:00 1 3 Sudeste 5 Este 0 976.1 -- 98
2021-02-14 08:00:00 -0.3 3 Este 4 Este 0 975.4 -- 98
2021-02-14 07:00:00 -0.3 3 Oeste 8 Oeste 0 974.6 -- 98
2021-02-14 06:00:00 -0.6 4 Oeste 8 Oeste 0 974.2 -- 97
2021-02-14 05:00:00 0.3 3 Sudeste 9 Sudeste 0 974.1 -- 98
2021-02-14 04:00:00 0.9 6 Este 9 Este 0 973.9 -- 98
2021-02-14 03:00:00 1.5 0 Calma 9 Sudeste 0 973.8 -- 97
2021-02-14 02:00:00 1.4 4 Sudeste 9 Sudeste 0 974.1 -- 96
2021-02-14 01:00:00 2.3 9 Sudeste 11 Este 0 973.8 -- 95
2021-02-14 00:00:00 3.2 4 Este 11 Sudoeste 0 973.9 -- 94
2021-02-13 23:00:00 4 7 Este 9 Este 0 973.9 -- 93
2021-02-13 22:00:00 4.4 0 Calma 11 Sudeste 0 973.9 -- 92
2021-02-13 21:00:00 6.4 0 Calma 9 Oeste 0 973.7 -- 84
2021-02-13 20:00:00 7.5 6 Oeste 11 Norte 0 973.3 -- 80
2021-02-13 19:00:00 9.1 10 Norte 18 Norte 0 972.8 -- 74
2021-02-13 18:00:00 11.2 13 Norte 22 Norte 0 972.3 -- 66
2021-02-13 17:00:00 12.8 12 Noroeste 26 Noroeste 0 971.6 -- 61
2021-02-13 16:00:00 12.4 18 Noroeste 24 Norte 0 971.2 -- 62
2021-02-13 15:00:00 12.8 11 Oeste 18 Noroeste 0 971.1 -- 63
2021-02-13 14:00:00 12.7 6 Oeste 17 Oeste 0 971.5 -- 64
2021-02-13 13:00:00 12 6 Oeste 11 Oeste 0 971.5 -- 70
2021-02-13 08:00:00 4.3 0 Calma 5 Sudoeste 0 970.6 0.4 95
2021-02-13 07:00:00 4.5 0 Calma 11 Sudoeste 0 970.3 0.3 94
2021-02-13 06:00:00 6 11 Sudoeste 13 Sudoeste 0 970.4 0.1 87
2021-02-13 05:00:00 6 6 Sudoeste 11 Sudeste 0 970.2 0.1 90
2021-02-13 04:00:00 6.6 5 Sudoeste 18 Norte 0 970 0.2 87
2021-02-13 03:00:00 7.6 11 Norte 22 Noroeste 0 970.3 1 85
2021-02-13 02:00:00 8.4 12 Noroeste 32 Noroeste 0 970.1 0.7 86
2021-02-13 01:00:00 8.5 19 Noroeste 32 Noroeste 0 969.8 0.9 86
2021-02-13 00:00:00 8.6 27 Norte 46 Norte 0 969.3 0.7 83
2021-02-12 23:00:00 8.9 18 Noroeste 35 Noroeste 0 969.4 1.5 86
2021-02-12 22:00:00 8.7 12 Norte 22 Norte 0 968.9 1.7 91
2021-02-12 21:00:00 8.9 18 Noroeste 30 Norte 0.1 968.6 2.4 93
2021-02-12 20:00:00 9.2 18 Norte 30 Norte 1.5 967.9 2.5 92
2021-02-12 19:00:00 9.5 13 Noroeste 28 Norte 0.4 967.2 2.5 89
2021-02-12 18:00:00 9.2 6 Noroeste 33 Noroeste 2.9 966.2 1.9 96
2021-02-12 17:00:00 10.2 24 Noroeste 39 Noroeste 0.1 965.4 1 86
2021-02-12 16:00:00 11 28 Noroeste 42 Noroeste 0 964.7 0.9 86
2021-02-12 15:00:00 11.2 14 Noroeste 32 Noroeste 0 964.3 1.1 84
2021-02-12 14:00:00 10.7 18 Noroeste 30 Norte 0.1 964.4 1.6 90
2021-02-12 13:00:00 10.9 9 Noroeste 18 Noroeste 1.4 963.8 1.4 95
2021-02-12 12:00:00 11.6 2 Noroeste 8 Oeste 0.2 963.2 1.3 90
2021-02-12 11:00:00 10.9 6 Oeste 15 Noroeste 0.1 962.8 1.6 95
2021-02-12 10:00:00 9.6 14 Noroeste 24 Noroeste 0.8 962.4 1.3 96
2021-02-12 09:00:00 9.7 7 Oeste 24 Sur 0.4 961.9 -- 94
2021-02-12 08:00:00 10.5 19 Sur 30 Sur 0 961.2 -- 89
2021-02-12 07:00:00 10.3 2 Sur 13 Norte 0.3 961.1 -- 88
2021-02-12 06:00:00 10.5 9 Oeste 21 Este 0 961.2 -- 85
2021-02-12 05:00:00 10 5 Sudeste 15 Norte 0 960.9 -- 85
2021-02-12 04:00:00 7.6 8 Norte 13 Norte 0 961.5 -- 95
2021-02-12 03:00:00 6.8 5 Noroeste 11 Sur 0 962.1 -- 97
2021-02-12 02:00:00 6.9 0 Calma 9 Oeste 0 962.5 -- 95
2021-02-12 01:00:00 7.3 6 Oeste 9 Oeste 0 962.8 -- 95
2021-02-12 00:00:00 7.8 6 Norte 17 Oeste 0 963 -- 95
2021-02-11 23:00:00 8.6 3 Norte 13 Sur 0 963.2 -- 91
2021-02-11 22:00:00 9.4 9 Sur 13 Sur 0 963.7 -- 90
2021-02-11 21:00:00 9.5 4 Este 11 Oeste 0 964.1 -- 90
2021-02-11 20:00:00 9.8 0 Calma 8 Sudeste 0 963.8 -- 88
2021-02-11 19:00:00 10.8 4 Oeste 11 Oeste 0 963.9 -- 84
2021-02-11 18:00:00 13 0 Calma 8 Este 0 963.5 -- 73
2021-02-11 17:00:00 14.2 4 Sudeste 8 Sudeste 0 963.6 -- 66
2021-02-11 16:00:00 14.1 3 Nordeste 11 Norte 0 963.5 -- 65
2021-02-11 15:00:00 13.1 4 Noroeste 11 Nordeste 0 963.9 -- 68
2021-02-11 14:00:00 11.7 4 Este 11 Noroeste 0 963.9 -- 71
2021-02-11 13:00:00 9.6 8 Oeste 9 Noroeste 0 964.7 -- 78
2021-02-11 12:00:00 7.1 3 Nordeste 9 Oeste 0 965 -- 85
2021-02-11 11:00:00 4.7 2 Noroeste 8 Nordeste 0 964.9 -- 94
2021-02-11 10:00:00 2.9 0 Calma 5 Oeste 0 964.9 -- 99
2021-02-11 09:00:00 1.1 0 Calma 5 Oeste 0 964.4 -- 99
2021-02-11 08:00:00 0.3 4 Noroeste 5 Oeste 0 964.1 -- 99
2021-02-11 07:00:00 0 2 Este 4 Nordeste 0 964 -- 99
2021-02-11 06:00:00 0.3 0 Calma 5 Oeste 0 964 -- 98
2021-02-11 05:00:00 0.5 0 Calma 5 Nordeste 0 963.7 -- 98
2021-02-11 04:00:00 0.8 2 Este 5 Sudeste 0 963.7 -- 98
2021-02-11 03:00:00 1.2 0 Calma 5 Sudeste 0 963.9 -- 97
2021-02-11 02:00:00 1.6 4 Sudeste 9 Sudeste 0 963.4 -- 97
2021-02-11 01:00:00 2.3 2 Sur 9 Sur 0 963.6 -- 97
2021-02-11 00:00:00 2.8 4 Sur 9 Sudoeste 0 962.9 -- 95
2021-02-10 23:00:00 4.5 4 Sur 8 Sur 0 962.6 -- 92
2021-02-10 22:00:00 5.5 5 Sudeste 8 Sudeste 0 962.1 -- 90
2021-02-10 21:00:00 6.3 0 Calma 9 Sur 0 962.1 -- 87
2021-02-10 20:00:00 6.6 -- -- -- -- 0 961.7 -- 86
2021-02-10 19:00:00 7.3 8 Nordeste 13 Este 0 960.7 -- 82
2021-02-10 18:00:00 8.6 9 Este 18 Noroeste 0 959.8 -- 79
2021-02-10 17:00:00 8.9 14 Norte 28 Noroeste 0 959.3 -- 76
2021-02-10 16:00:00 9.9 14 Noroeste 22 Oeste 0 958.3 -- 70
2021-02-10 15:00:00 9.2 5 Noroeste 13 Oeste 0 957.8 -- 75
2021-02-10 14:00:00 8.5 0 Calma 11 Nordeste 0 957.3 -- 73
2021-02-10 13:00:00 8 7 Este 11 Este 0 956.4 -- 75
2021-02-10 12:00:00 6.9 0 Calma 13 Sur 0.2 955.9 -- 82
2021-02-10 11:00:00 5.7 5 Sudeste 8 Este 0.1 954.7 -- 89
2021-02-10 10:00:00 4.8 3 Sudeste 5 Sudeste 0 953.4 -- 93
2021-02-10 09:00:00 4.2 4 Oeste 8 Noroeste 0.4 952 -- 96
2021-02-10 08:00:00 3.8 3 Noroeste 17 Oeste 2.4 950.5 -- 96
2021-02-10 07:00:00 4.5 11 Oeste 17 Oeste 6.6 949.1 -- 93
2021-02-10 06:00:00 5.4 8 Oeste 13 Sur 0.7 947.9 -- 89
2021-02-10 05:00:00 5.6 11 Sur 21 Sur 0 947 -- 82
2021-02-10 04:00:00 5.2 6 Sur 13 Sur 0 947.2 -- 83
2021-02-10 03:00:00 5.3 7 Sudeste 11 Noroeste 0 947.5 -- 87
2021-02-10 02:00:00 5.4 4 Norte 13 Sur 0 948 -- 90
2021-02-10 01:00:00 5.7 8 Norte 15 Noroeste 0 947.8 -- 89
2021-02-10 00:00:00 6.2 6 Sudeste 17 Sur 0 947.4 -- 83
2021-02-09 23:00:00 6.2 13 Sur 17 Sur 0 947.6 -- 86
2021-02-09 22:00:00 5.1 14 Sur 22 Sur 0 947.5 -- 89
2021-02-09 21:00:00 5.1 15 Sudeste 18 Sudeste 0 947.4 -- 86
2021-02-09 20:00:00 5.6 14 Sur 22 Sudoeste 0 947.5 -- 84
2021-02-09 19:00:00 6.1 13 Sur 24 Sudoeste 0 947.1 -- 84
2021-02-09 18:00:00 7.6 17 Sur 39 Sur 0 946 -- 82
2021-02-09 17:00:00 7.7 16 Sur 45 Sur 0.3 945.5 -- 86
2021-02-09 16:00:00 8.5 29 Sudoeste 46 Sur 2.2 945.6 -- 87
2021-02-09 15:00:00 8.7 16 Sudeste 46 Sudeste 1.1 944.4 -- 83
2021-02-09 14:00:00 8.4 21 Sudeste 46 Sur 0.7 945.2 -- 82
2021-02-09 13:00:00 9.5 28 Sudeste 42 Sur 0 946.6 -- 69
2021-02-09 12:00:00 10 28 Sur 45 Sur 0 947.5 -- 67
2021-02-09 11:00:00 8.3 27 Sudeste 41 Sudeste 0 948.3 -- 72
2021-02-09 10:00:00 7.3 15 Sudeste 28 Sudeste 0 948.5 -- 74
2021-02-09 09:00:00 6.8 22 Sudeste 33 Sudeste 0 949 -- 80
2021-02-09 08:00:00 6.6 14 Sur 22 Sur 0 949.7 -- 83
2021-02-09 07:00:00 6.2 11 Sur 15 Sur 0 950 -- 88
2021-02-09 06:00:00 6.3 4 Sur 18 Sur 0 950.5 -- 85
2021-02-09 05:00:00 5.9 15 Sur 26 Sur 0 950.5 -- 85
2021-02-09 04:00:00 5.6 12 Sudeste 18 Sur 0 951.1 -- 87
2021-02-09 03:00:00 5.1 15 Sur 18 Sur 0 951.6 -- 88
2021-02-09 02:00:00 5 12 Sur 17 Sur 0 951.7 -- 88
2021-02-09 01:00:00 5 8 Sur 13 Sur 0 951.3 -- 92
2021-02-09 00:00:00 6.2 2 Sudoeste 9 Sudeste 0 951.2 -- 93
2021-02-08 23:00:00 6.1 7 Sur 9 Sur 0 950.2 -- 94
2021-02-08 22:00:00 6.3 4 Este 11 Este 0 950 -- 91
2021-02-08 21:00:00 6.2 6 Sudeste 9 Sudeste 0 949.5 -- 92
2021-02-08 20:00:00 6.5 7 Sudeste 11 Sudeste 0 948.7 -- 90
2021-02-08 19:00:00 7.1 0 Calma 22 Norte 0.1 947.9 -- 85
2021-02-08 18:00:00 7.7 24 Norte 41 Norte 0.3 946.8 -- 86
2021-02-08 17:00:00 11.7 16 Oeste 28 Oeste 0 945.8 -- 60
2021-02-08 16:00:00 11.1 3 Sur 9 Nordeste 0 945.8 -- 68
2021-02-08 15:00:00 10.1 5 Nordeste 13 Nordeste 0 945.9 -- 73
2021-02-08 14:00:00 9 5 Norte 9 Noroeste 0 946.3 -- 79
2021-02-08 13:00:00 8.7 4 Norte 13 Norte 0 946.6 -- 79
2021-02-08 12:00:00 7.9 5 Nordeste 8 Nordeste 0 946.6 -- 83
2021-02-08 11:00:00 6.8 2 Sudoeste 8 Noroeste 0 946.5 -- 86
2021-02-08 10:00:00 5.9 2 Norte 5 Sudeste 0 946.3 -- 92
2021-02-08 09:00:00 5.3 3 Norte 8 Noroeste 0 946.2 -- 94
2021-02-08 08:00:00 5 5 Noroeste 15 Noroeste 0 946 -- 95
2021-02-08 07:00:00 5 7 Oeste 15 Oeste 0 945.9 -- 95
2021-02-08 06:00:00 5.1 0 Calma 9 Este 0.2 946.5 -- 94
2021-02-08 05:00:00 5.2 8 Sudeste 13 Sudeste 0 947.2 -- 89
2021-02-08 04:00:00 5.2 10 Sur 18 Sur 0.3 947.7 -- 92
2021-02-08 03:00:00 5.3 13 Sur 17 Sur 0.3 948.1 -- 93
2021-02-08 02:00:00 5.5 12 Sudeste 24 Sur 0 948.8 -- 90
2021-02-08 01:00:00 5.6 12 Sur 22 Sur 0 949.6 -- 88
2021-02-08 00:00:00 5.3 16 Sur 26 Sur 0.3 949.8 -- 91
2021-02-07 23:00:00 5.4 12 Sur 24 Sudoeste 1.8 950.4 -- 92
2021-02-07 22:00:00 6.1 19 Sudoeste 26 Oeste 0.1 950.8 -- 83
2021-02-07 21:00:00 6.6 11 Sudoeste 22 Oeste 0 951 -- 76
2021-02-07 20:00:00 7.3 12 Sudoeste 21 Oeste 0 951 -- 66
2021-02-07 19:00:00 7.3 5 Sudoeste 13 Oeste 0 950.9 -- 69
2021-02-07 18:00:00 8 0 Calma -- -- -- 951 -- 65
2021-02-07 17:00:00 8.8 4 Sur 15 Sudoeste 0 951.3 -- 60
2021-02-07 16:00:00 9.9 7 Oeste 11 Oeste 0 951.6 -- 57
2021-02-07 15:00:00 8.9 5 Oeste 22 Noroeste 0 952 -- 61
2021-02-07 14:00:00 8.9 8 Noroeste 18 Oeste 0 952.7 -- 69
2021-02-07 13:00:00 7.4 12 Noroeste 22 Noroeste 0 953.6 -- 76
2021-02-07 12:00:00 6.3 13 Norte 22 Noroeste 0 954.2 -- 79
2021-02-07 11:00:00 6.2 14 Norte 24 Norte 0 954.1 -- 81
2021-02-07 10:00:00 4.6 17 Norte 26 Norte 0 954 -- 86
2021-02-07 09:00:00 4.2 9 Norte 15 Noroeste 0 954 -- 87
2021-02-07 08:00:00 3.6 4 Sudeste 8 Este 0 953.8 -- 91
2021-02-07 07:00:00 3.8 5 Norte 17 Norte 0 953.8 -- 88
2021-02-07 06:00:00 3.3 9 Norte 21 Norte 0 954 -- 91
2021-02-07 05:00:00 3.7 12 Norte 18 Norte 0 954 -- 87
2021-02-07 04:00:00 3.9 12 Norte 21 Norte 0 954.3 -- 84
2021-02-07 03:00:00 4 14 Norte 24 Noroeste 0 954.6 -- 84
2021-02-07 02:00:00 3.7 13 Noroeste 30 Noroeste 0 954.6 -- 86
2021-02-07 01:00:00 4.1 15 Noroeste 28 Norte 0 954.8 -- 85
2021-02-07 00:00:00 4.8 14 Norte 26 Noroeste 0 954.7 -- 82
2021-02-06 23:00:00 5 17 Noroeste 28 Noroeste 0 954.6 -- 87
2021-02-06 22:00:00 5.1 10 Noroeste 24 Noroeste 0.1 954.1 -- 89
2021-02-06 21:00:00 5.6 14 Noroeste 18 Noroeste 0 953.2 -- 88
2021-02-06 20:00:00 5.7 9 Norte 32 Noroeste 0 952.8 -- 85
2021-02-06 19:00:00 5.9 24 Noroeste 39 Noroeste 0 952.5 -- 84
2021-02-06 18:00:00 7 21 Noroeste 33 Noroeste 0 951.3 -- 87
2021-02-06 17:00:00 7.9 23 Noroeste 33 Noroeste 0 950.4 -- 85
2021-02-06 16:00:00 7.9 19 Noroeste 35 Noroeste 1.2 949.5 -- 89
2021-02-06 15:00:00 9 15 Oeste 22 Oeste 1.3 948.5 -- 90
2021-02-06 14:00:00 9.1 13 Sudoeste 24 Sur 1.3 948.5 -- 92
2021-02-06 13:00:00 9.3 18 Sur 30 Sudoeste 0.7 948.6 -- 93
2021-02-06 12:00:00 9 15 Sur 21 Sur 0.7 948.5 -- 95
2021-02-06 11:00:00 8.7 0 Calma 4 Este 0.8 948.2 -- 98
2021-02-06 10:00:00 8.3 2 Este 9 Este 1.4 948.3 -- 98
2021-02-06 09:00:00 8.1 5 Este 9 Este 2.6 948.3 -- 97
2021-02-06 08:00:00 8.1 2 Norte 15 Este 2.4 948.1 -- 96
2021-02-06 07:00:00 8.6 13 Este 21 Este 0.2 948.4 -- 93
2021-02-06 06:00:00 8.1 6 Norte 17 Noroeste 0.1 948.6 -- 95
2021-02-06 05:00:00 8.3 5 Noroeste 18 Nordeste 0 948.5 -- 93
2021-02-06 04:00:00 7.7 6 Este 13 Nordeste 0 949.1 -- 95
2021-02-06 03:00:00 7.7 8 Sudeste 11 Este 0 950.5 -- 96
2021-02-06 02:00:00 7.5 4 Nordeste 11 Oeste 0 951 -- 97
2021-02-06 01:00:00 7.4 4 Este 8 Nordeste 0 951.4 -- 97
2021-02-06 00:00:00 8 3 Nordeste 9 Oeste 0 951.8 -- 96
2021-02-05 23:00:00 8.7 6 Oeste 9 Oeste 0 951.9 -- 94
2021-02-05 22:00:00 8.7 4 Oeste 11 Oeste 0 951.9 -- 93
2021-02-05 21:00:00 9.1 2 Oeste 8 Sudoeste 0 951.9 -- 91
2021-02-05 20:00:00 10.2 5 Noroeste 11 Noroeste 0 952.2 -- 86
2021-02-05 19:00:00 11.1 8 Norte 15 Noroeste 0 951.8 -- 82
2021-02-05 18:00:00 13 4 Oeste 24 Oeste 0 951.3 -- 76
2021-02-05 17:00:00 15.8 7 Oeste 18 Oeste 0 951.6 -- 62
2021-02-05 16:00:00 16.6 14 Oeste 18 Oeste 0 952 -- 61
2021-02-05 15:00:00 16.8 7 Noroeste 15 Noroeste 0 952.7 -- 56
2021-02-05 14:00:00 -- -- -- -- -- -- -- -- --
2021-02-05 13:00:00 13.8 3 Noroeste 11 Oeste 0 954.4 -- 71
2021-02-05 12:00:00 13.2 5 Noroeste 9 Noroeste 0 955.3 -- 73
2021-02-05 11:00:00 10.7 0 Calma 9 Sudeste 0 956 -- 81
2021-02-05 10:00:00 -- -- -- -- -- -- -- -- --
2021-02-05 09:00:00 6.7 0 Calma 9 Sudeste 0 956.5 -- 95
2021-02-05 08:00:00 7 3 Este 8 Sudeste 0 956.5 -- 94
2021-02-05 07:00:00 7.5 6 Este 9 Este 0 956.7 -- 94
2021-02-05 06:00:00 7.7 5 Oeste 11 Oeste 0 956.7 -- 94
2021-02-05 05:00:00 8.2 2 Sudoeste 13 Este 0 956.5 -- 90
2021-02-05 04:00:00 7.8 8 Sudeste 11 Sudeste 0 957.4 -- 92
2021-02-05 03:00:00 7.3 5 Sudoeste 11 Noroeste 0 957.3 -- 91
2021-02-05 02:00:00 8.3 9 Noroeste 15 Noroeste 0 957.2 -- 88
2021-02-05 01:00:00 10.9 5 Este 11 Nordeste 0 957.5 -- 73
2021-02-05 00:00:00 11.5 5 Nordeste 21 Sudeste 0 957.7 -- 73
2021-02-04 23:00:00 12.4 13 Sudeste 21 Sur 0 957.1 -- 71
2021-02-04 22:00:00 12.8 17 Sur 32 Sur 0 956.4 -- 71
2021-02-04 21:00:00 12.6 14 Sur 24 Sur 0 956.2 -- 71
2021-02-04 20:00:00 11.8 5 Sudoeste 9 Oeste 0 956.1 -- 79
2021-02-04 19:00:00 12.6 4 Oeste -- -- -- 955.7 -- 78
2021-02-04 18:00:00 13.2 4 Oeste 8 Sudoeste 0 955.3 -- 79
2021-02-04 17:00:00 14.8 8 Sudeste 13 Este 0 955.3 -- 70
2021-02-04 16:00:00 15 3 Norte 9 Norte 0 955.8 -- 67
2021-02-04 15:00:00 14.3 5 Noroeste 11 Norte 0 956.4 -- 73
2021-02-04 14:00:00 12.9 9 Noroeste 13 Norte 0 957.2 -- 78
2021-02-04 13:00:00 12.8 5 Norte 9 Noroeste 0 957.8 -- 80
2021-02-04 12:00:00 11.7 7 Noroeste 13 Norte 0 958.7 -- 83
2021-02-04 11:00:00 11.7 8 Oeste 11 Noroeste 0 959 -- 81
2021-02-04 10:00:00 11.4 0 Calma 8 Sudoeste 0 958.9 -- 78
2021-02-04 09:00:00 10.5 3 Norte 9 Oeste 0 958.7 -- 84
2021-02-04 08:00:00 10.6 2 Sudoeste 9 Norte 0 958.4 -- 83
2021-02-04 07:00:00 10.9 3 Nordeste 13 Norte 0 958.3 -- 82
2021-02-04 06:00:00 10.9 5 Norte 13 Sudeste 0 958.2 -- 83
2021-02-04 05:00:00 10.3 6 Norte 11 Noroeste 0 958 -- 89
2021-02-04 04:00:00 10.6 9 Noroeste 11 Noroeste 0 958.3 -- 86
2021-02-04 03:00:00 11.2 10 Este 15 Este 0 958.7 -- 82
2021-02-04 02:00:00 11.1 9 Sudeste 18 Sudeste 0 958.9 -- 80
2021-02-04 01:00:00 11.1 8 Sudeste 22 Sudeste 0 959.2 -- 81
2021-02-04 00:00:00 11.2 16 Este 24 Este 0 959.1 -- 81
2021-02-03 23:00:00 9.4 4 Sudeste 15 Este 0 959 -- 95
2021-02-03 22:00:00 9.3 6 Sur 11 Sudeste 0 959.2 -- 96
2021-02-03 21:00:00 9.6 8 Sudeste 11 Sudeste 0.3 959.4 -- 95
2021-02-03 20:00:00 10.5 6 Oeste -- -- 0.3 959.9 -- 94
2021-02-03 19:00:00 11 6 Oeste 9 Oeste 0 959.6 -- 91
2021-02-03 18:00:00 12.1 4 Este 15 Este 0 959.2 -- 82
2021-02-03 17:00:00 13.7 10 Sudeste 18 Sudeste 0 959 -- 70
2021-02-03 16:00:00 14.3 10 Sudeste 24 Sudeste 0 959.2 -- 68
2021-02-03 15:00:00 13.6 14 Sudeste 21 Sudeste 0 959.2 -- 74
2021-02-03 14:00:00 12.3 11 Sur 17 Sur 0.5 959.6 -- 82
2021-02-03 13:00:00 11.6 7 Sudeste 13 Este 0.3 960 -- 81
2021-02-03 12:00:00 11.4 6 Sudeste 15 Noroeste 0.2 960 -- 77
2021-02-03 11:00:00 11.4 7 Norte 21 Este 0 959.4 -- 74
2021-02-03 10:00:00 11.3 9 Nordeste 33 Sur 0 958.5 -- 69
2021-02-03 09:00:00 10.8 18 Sur 26 Sur 0 957.7 -- 70
2021-02-03 08:00:00 10.9 6 Sudeste 17 Sudeste 0 957.2 -- 68
2021-02-03 07:00:00 10.9 4 Este 33 Este 0 956.8 -- 69
2021-02-03 06:00:00 11.2 28 Sur 42 Sur 0 956.8 -- 67
2021-02-03 05:00:00 11.2 22 Sudeste 39 Sudeste 0 957 -- 70
2021-02-03 04:00:00 11.2 19 Sudeste 41 Sudeste 0 957.3 -- 70
2021-02-03 03:00:00 11.1 14 Sudeste 33 Sudeste 0 957.7 -- 72
2021-02-03 02:00:00 11.1 15 Sudeste 32 Sur 0 957.9 -- 73
2021-02-03 01:00:00 9.9 5 Sur 17 Sudoeste 0 958.2 -- 77
2021-02-03 00:00:00 10.7 7 Sur 18 Sur 0 958.9 -- 76
2021-02-02 23:00:00 10.7 11 Sudeste 30 Sudeste 0 959.5 -- 74
2021-02-02 22:00:00 11.4 8 Sur 28 Sur 0 959.4 -- 72
2021-02-02 21:00:00 10.8 19 Sur 32 Sur 0 958.9 -- 79
2021-02-02 20:00:00 10.6 12 Sur 17 Sur 0 959.4 -- 79
2021-02-02 19:00:00 12.9 12 Sur 17 Sudeste 0 959 -- 71
2021-02-02 18:00:00 14.3 10 Sur 15 Sur 0 959.3 -- 68
2021-02-02 17:00:00 15.5 12 Sur 18 Sudoeste 0 959.6 -- 61
2021-02-02 16:00:00 17.4 12 Sur 28 Sur 0 959.7 -- 53
2021-02-02 15:00:00 17.9 17 Sur 28 Sur 0 960.3 -- 54
2021-02-02 14:00:00 16.2 15 Sur 30 Sur 0 960.8 -- 60
2021-02-02 13:00:00 15.4 24 Sur 32 Sur 0 961.4 -- 64
2021-02-02 12:00:00 13.9 18 Sur 35 Sur 0 962 -- 67
2021-02-02 11:00:00 13.3 15 Sur 26 Sur 0 961.6 -- 69
2021-02-02 10:00:00 11.9 19 Sudoeste 37 Sudoeste 0 961.2 -- 74
2021-02-02 09:00:00 8.2 5 Noroeste 24 Oeste 0 961.2 -- 91
2021-02-02 08:00:00 6.2 5 Nordeste 13 Nordeste 0 961.2 -- 98
2021-02-02 07:00:00 4.6 6 Nordeste 11 Noroeste 0 961.1 -- 99
2021-02-02 06:00:00 4.2 2 Noroeste 9 Noroeste 0 961 -- 99
2021-02-02 05:00:00 4.2 3 Sudeste 8 Sur 0 960.7 -- 99
2021-02-02 04:00:00 4.9 6 Sudeste 9 Sudeste 0 961.4 -- 99
2021-02-02 03:00:00 5.6 2 Sudoeste 11 Oeste 0 962.1 -- 99
2021-02-02 02:00:00 6.8 3 Este 18 Sur 0 961.7 -- 99
2021-02-02 01:00:00 7.2 3 Noroeste 11 Sudoeste 0 961.6 -- 99
2021-02-02 00:00:00 8.3 3 Noroeste 8 Sur 0 961.3 -- 97
2021-02-01 23:00:00 8.8 2 Sur 18 Noroeste 0 961.2 -- 98
2021-02-01 22:00:00 8.6 5 Este 8 Este 0.2 961.5 -- 97
2021-02-01 21:00:00 8.4 4 Este 9 Sudoeste 0.5 961.3 -- 97
2021-02-01 20:00:00 8.3 6 Sur 9 Sur 0 961.3 -- 97
2021-02-01 19:00:00 8.3 5 Sudeste -- -- 0 960.6 -- 94
2021-02-01 18:00:00 9.8 7 Sur 13 Sur 0 960.3 -- 91
2021-02-01 17:00:00 9.7 0 Calma 9 Sudoeste 0 959.9 -- 96
2021-02-01 16:00:00 9.1 5 Sur 9 Sudoeste 0.4 959.6 -- 97
2021-02-01 15:00:00 8.9 0 Calma 9 Sudeste 1.9 959.3 -- 96
2021-02-01 14:00:00 9.3 5 Este 15 Nordeste 0.6 959.6 -- 87
2021-02-01 13:00:00 10.5 7 Sudeste 13 Sur 0 958.6 -- 75
2021-02-01 12:00:00 10.8 8 Sudeste 17 Sudoeste 0 958.5 -- 70
2021-02-01 11:00:00 11.5 3 Sudoeste 17 Sudoeste 0 957.9 -- 65
2021-02-01 10:00:00 11 3 Norte 11 Este 0 956.9 -- 63
2021-02-01 09:00:00 10.4 5 Noroeste 58 Noroeste 0 955.9 -- 64
2021-02-01 08:00:00 10.7 26 Noroeste 72 Norte 0 954.8 -- 63
2021-02-01 07:00:00 10.9 30 Noroeste 55 Noroeste 0 954.3 -- 65
2021-02-01 06:00:00 10.6 25 Noroeste 61 Noroeste 0 954 -- 68
2021-02-01 05:00:00 10 19 Noroeste 33 Noroeste 0 953.8 -- 75
2021-02-01 04:00:00 9.4 13 Norte 33 Noroeste 0 953.6 -- 82
2021-02-01 03:00:00 9.2 2 Nordeste 22 Noroeste 0 953.5 -- 84
2021-02-01 02:00:00 9.2 10 Norte 18 Nordeste 0 953.6 -- 86
2021-02-01 01:00:00 8.2 11 Sudeste 15 Sudeste 0 952.5 -- 94
2021-02-01 00:00:00 7.5 10 Sur 15 Sudoeste 3.1 952.6 -- 96
2021-01-31 23:00:00 7.1 6 Sur 17 Nordeste 0 952 -- 94
2021-01-31 22:00:00 6.9 5 Sudeste 15 Nordeste 0 951.6 -- 94
2021-01-31 21:00:00 7.2 5 Sur 13 Sudoeste 0 951.8 -- 92
2021-01-31 20:00:00 6.8 2 Sur 11 Noroeste 0 952 -- 94
2021-01-31 19:00:00 7.8 5 Noroeste 15 Sur 0 953 -- 93
2021-01-31 18:00:00 9.7 4 Oeste 11 Este 0 953.5 -- 86
2021-01-31 17:00:00 10 9 Este 13 Este 0 953.8 -- 83
2021-01-31 16:00:00 10.4 8 Nordeste 17 Nordeste 0 954.4 -- 81
2021-01-31 15:00:00 9.5 8 Este 13 Nordeste 0 954.8 -- 86
2021-01-31 14:00:00 9.8 2 Nordeste 9 Norte 0 955.5 -- 80
2021-01-31 13:00:00 8.8 6 Oeste 26 Oeste 0.3 956.5 -- 86
2021-01-31 12:00:00 9.3 19 Oeste 33 Oeste 0.2 957.1 -- 81
2021-01-31 11:00:00 9.2 4 Norte 15 Oeste 0 956.9 -- 77
2021-01-31 10:00:00 8.7 8 Noroeste 21 Noroeste 0 957.2 -- 75
2021-01-31 09:00:00 8.1 10 Oeste 30 Oeste 0 956.7 -- 79
2021-01-31 08:00:00 7.8 10 Oeste 24 Oeste 0 955.8 -- 81
2021-01-31 07:00:00 7.6 11 Noroeste 58 Noroeste 0 955.3 -- 85
2021-01-31 06:00:00 7.5 28 Noroeste 50 Noroeste 0.1 954.5 -- 86
2021-01-31 05:00:00 5.9 8 Noroeste 17 Noroeste 0.6 954.5 -- 95
2021-01-31 04:00:00 6.1 8 Oeste 13 Oeste 0.7 954.7 -- 93
2021-01-31 03:00:00 6.3 5 Oeste 21 Oeste 0 954.6 -- 91
2021-01-31 02:00:00 6.1 2 Este 9 Nordeste 0 954.3 -- 94
2021-01-31 01:00:00 5.9 0 Calma 8 Este 0 954.4 -- 95
2021-01-31 00:00:00 5.8 5 Sudeste 8 Sudeste 0.1 954.1 -- 96
2021-01-30 23:00:00 5.9 8 Noroeste 9 Noroeste 0.1 954.3 -- 94
2021-01-30 22:00:00 5.8 3 Oeste 9 Sur 0 954 -- 94
2021-01-30 21:00:00 5.7 6 Sur 18 Sur 0 953.9 -- 91
2021-01-30 20:00:00 5.9 6 Sur 13 Sur 0.1 954.4 -- 90
2021-01-30 19:00:00 5.9 8 Sudeste 13 Sudeste 0.1 954.1 -- 92
2021-01-30 18:00:00 6.5 3 Sudeste 13 Sudoeste 0 953.9 -- 86
2021-01-30 17:00:00 6.2 10 Sudoeste 32 Oeste 1.8 953.9 -- 85
2021-01-30 16:00:00 6 4 Nordeste 61 Norte 4.9 954.4 -- 98
2021-01-30 15:00:00 10.9 54 Norte 71 Norte 0 953.5 -- 69
2021-01-30 14:00:00 13.9 23 Oeste 41 Oeste 0 953.3 -- 52
2021-01-30 13:00:00 12.8 26 Oeste 46 Oeste 0 954 -- 55
2021-01-30 12:00:00 12.9 23 Oeste 39 Oeste 0 954.5 -- 60
2021-01-30 11:00:00 11.8 22 Oeste 30 Oeste 0 955 -- 66
2021-01-30 10:00:00 10.3 6 Oeste 30 Oeste 0 955 -- 73
2021-01-30 09:00:00 9.5 18 Oeste 35 Sudoeste 0 954.9 -- 74
2021-01-30 08:00:00 9.7 22 Sudoeste 33 Sudoeste 0.1 954.9 -- 76
2021-01-30 07:00:00 9.4 15 Sur 54 Sudoeste 0.4 955.8 -- 88
2021-01-30 06:00:00 10.9 32 Sudoeste 58 Sudoeste 1.2 956.5 -- 81
2021-01-30 05:00:00 10.9 5 Sur 24 Sudeste 0.1 956.6 -- 78
2021-01-30 04:00:00 9.8 17 Sudeste 24 Sur 0 957.8 -- 86
2021-01-30 03:00:00 8.3 7 Sudoeste 17 Noroeste 0 958.6 -- 93
2021-01-30 02:00:00 7.6 10 Oeste 15 Oeste 0 958.3 -- 93
2021-01-30 01:00:00 7.6 5 Sudeste 8 Este 0 958.9 -- 92
2021-01-30 00:00:00 8.6 4 Norte 13 Sudoeste 0 960.2 -- 89